Time;durP1;ratioP1;P1;durP2;ratioP2;P2;SDS_P1;SDS_P2;PMS_P1;PMS_P2;Temp;Humidity;BMP_temperature;BMP_pressure;BME280_temperature;BME280_humidity;BME280_pressure;Samples;Min_cycle;Max_cycle;Signal;HPM_P1;HPM_P2
2022/01/02 12:12:17;;;;;;;16.10;4.50;;;10.70;99.90;;;;;;5131689;27;20796;-66
2022/01/02 12:14:52;;;;;;;16.92;4.22;;;10.90;99.90;;;;;;5131993;28;20051;-66
2022/01/02 12:17:23;;;;;;;24.77;5.32;;;10.90;99.90;;;;;;5130643;28;20059;-64
2022/01/02 12:20:04;;;;;;;16.52;4.15;;;10.90;99.90;;;;;;5131088;27;20050;-64
2022/01/02 12:22:45;;;;;;;17.60;4.22;;;11.00;99.90;;;;;;5131653;27;20039;-63
2022/01/02 12:25:17;;;;;;;24.77;5.20;;;11.00;99.90;;;;;;5131973;27;20434;-64
2022/01/02 12:27:55;;;;;;;17.63;3.75;;;10.90;99.90;;;;;;5130944;28;20043;-65
2022/01/02 12:30:21;;;;;;;15.50;3.67;;;10.90;99.90;;;;;;5113242;28;20065;-64
2022/01/02 12:32:48;;;;;;;19.42;4.32;;;11.00;99.90;;;;;;5130833;27;20047;-64
2022/01/02 12:35:14;;;;;;;19.38;3.90;;;10.90;99.90;;;;;;5131292;27;20047;-65
2022/01/02 12:37:40;;;;;;;25.92;4.65;;;10.90;99.90;;;;;;5130785;28;20041;-65
2022/01/02 12:40:16;;;;;;;20.45;4.55;;;10.90;99.90;;;;;;5130378;28;20120;-64
2022/01/02 12:42:42;;;;;;;22.85;4.55;;;10.90;99.90;;;;;;5132048;27;20067;-65
2022/01/02 12:45:08;;;;;;;21.83;3.75;;;10.90;99.90;;;;;;5132135;27;20055;-65
2022/01/02 12:47:34;;;;;;;19.55;4.18;;;10.90;99.90;;;;;;5131540;27;20039;-65
2022/01/02 12:50:00;;;;;;;22.50;3.47;;;10.90;99.90;;;;;;5131388;27;20126;-65
2022/01/02 12:52:25;;;;;;;20.58;3.67;;;10.80;99.90;;;;;;5131430;27;20039;-64
2022/01/02 12:54:54;;;;;;;20.30;4.20;;;10.80;99.90;;;;;;5130736;28;20051;-64
2022/01/02 12:57:22;;;;;;;21.83;3.80;;;10.80;99.90;;;;;;5131371;27;20043;-64
2022/01/02 12:59:57;;;;;;;16.75;3.22;;;10.80;99.90;;;;;;5131266;27;20054;-64
2022/01/02 13:02:25;;;;;;;17.55;3.47;;;10.70;99.90;;;;;;5131834;27;20039;-65
2022/01/02 13:04:51;;;;;;;15.85;3.20;;;10.80;99.90;;;;;;5131178;27;20066;-64
2022/01/02 13:07:40;;;;;;;17.27;3.13;;;10.80;99.90;;;;;;5131728;27;20050;-64
2022/01/02 13:10:08;;;;;;;21.23;3.22;;;10.70;99.90;;;;;;5129552;28;20046;-64
2022/01/02 13:12:36;;;;;;;15.73;3.22;;;10.70;99.90;;;;;;5131616;27;20039;-64
2022/01/02 13:15:13;;;;;;;13.75;2.78;;;10.70;99.90;;;;;;5130027;28;20039;-64
2022/01/02 13:17:50;;;;;;;13.85;3.00;;;10.70;99.90;;;;;;5131569;27;20447;-65
2022/01/02 13:20:19;;;;;;;12.30;2.33;;;10.60;99.90;;;;;;5130595;27;20501;-64
2022/01/02 13:22:48;;;;;;;15.32;2.85;;;10.70;99.90;;;;;;5122274;27;20043;-64
2022/01/02 13:25:23;;;;;;;15.30;2.67;;;10.60;99.90;;;;;;5116439;28;20045;-64
2022/01/02 13:27:58;;;;;;;16.40;2.50;;;10.60;99.90;;;;;;5117100;28;20054;-66
2022/01/02 13:30:28;;;;;;;17.52;3.00;;;10.60;99.90;;;;;;5116852;28;20043;-64
2022/01/02 13:32:55;;;;;;;15.00;2.78;;;10.60;99.90;;;;;;5116977;28;20044;-64
2022/01/02 13:35:25;;;;;;;13.73;2.72;;;10.50;99.90;;;;;;5116789;28;20039;-64
2022/01/02 13:38:00;;;;;;;15.73;3.05;;;10.50;99.90;;;;;;5115915;28;20520;-63
2022/01/02 13:40:46;;;;;;;16.40;2.83;;;10.50;99.90;;;;;;5116584;28;20118;-63
2022/01/02 13:43:13;;;;;;;23.02;3.10;;;10.60;99.90;;;;;;5096349;28;20087;-64
2022/01/02 13:45:42;;;;;;;13.75;2.70;;;10.50;99.90;;;;;;5096286;28;20048;-65
2022/01/02 13:48:23;;;;;;;16.55;2.60;;;10.50;99.90;;;;;;5097057;28;20046;-64
2022/01/02 13:50:55;;;;;;;15.20;3.10;;;10.50;99.90;;;;;;5096713;28;20040;-64
2022/01/02 13:53:33;;;;;;;15.40;2.60;;;10.50;99.90;;;;;;5076727;28;20522;-64
2022/01/02 13:56:05;;;;;;;13.43;2.45;;;10.40;99.90;;;;;;5075880;28;20097;-64
2022/01/02 13:58:40;;;;;;;14.50;2.20;;;10.40;99.90;;;;;;5076049;28;20044;-64
2022/01/02 14:01:29;;;;;;;15.63;2.35;;;10.30;99.90;;;;;;5074363;28;20075;-63
2022/01/02 14:04:09;;;;;;;15.75;2.55;;;10.30;99.90;;;;;;5076107;28;20045;-64
2022/01/02 14:06:39;;;;;;;11.88;2.45;;;10.30;99.90;;;;;;5074359;28;20051;-62
2022/01/02 14:09:16;;;;;;;11.50;2.60;;;10.20;99.90;;;;;;5073826;28;20086;-63
2022/01/02 14:11:46;;;;;;;14.50;2.92;;;10.20;99.90;;;;;;5072796;28;20049;-63
2022/01/02 14:19:39;;;;;;;14.50;2.70;;;10.10;99.90;;;;;;5078771;28;20085;-63
2022/01/02 14:22:05;;;;;;;15.40;2.55;;;10.00;99.90;;;;;;5075303;28;20463;-63
2022/01/02 14:24:32;;;;;;;12.48;2.67;;;10.00;99.90;;;;;;5077633;28;20048;-63
2022/01/02 14:27:15;;;;;;;19.33;2.85;;;9.90;99.90;;;;;;5077175;28;20059;-62
2022/01/02 14:29:42;;;;;;;14.77;4.28;;;9.90;99.90;;;;;;5073734;28;20075;-62
2022/01/02 14:32:08;;;;;;;17.13;2.55;;;9.90;99.90;;;;;;5074257;28;20079;-64
2022/01/02 14:34:35;;;;;;;17.23;2.78;;;9.80;99.90;;;;;;5076961;28;20066;-64
2022/01/02 14:37:11;;;;;;;17.65;2.85;;;9.80;99.90;;;;;;5077776;28;20119;-70
2022/01/02 14:39:37;;;;;;;19.30;3.28;;;9.80;99.90;;;;;;5072783;28;20371;-62
2022/01/02 14:42:03;;;;;;;16.23;2.78;;;9.80;99.90;;;;;;5074062;28;20037;-63
2022/01/02 14:44:29;;;;;;;17.73;3.30;;;9.80;99.90;;;;;;5073744;28;20488;-64
2022/01/02 14:46:55;;;;;;;20.55;3.30;;;9.70;99.90;;;;;;5076148;28;20051;-63
2022/01/02 14:49:21;;;;;;;16.25;2.92;;;9.70;99.90;;;;;;5071559;28;20040;-62
2022/01/02 14:51:47;;;;;;;13.82;2.90;;;9.70;99.90;;;;;;5074229;28;20368;-63
2022/01/02 14:54:14;;;;;;;17.45;3.10;;;9.70;99.90;;;;;;5073864;28;20119;-63
2022/01/02 14:56:40;;;;;;;18.15;3.00;;;9.70;99.90;;;;;;5072679;28;20463;-64
2022/01/02 14:59:08;;;;;;;17.75;3.22;;;9.70;99.90;;;;;;5071004;28;20069;-64
2022/01/02 15:01:34;;;;;;;13.98;3.03;;;9.60;99.90;;;;;;5073962;28;20041;-63
2022/01/02 15:04:00;;;;;;;;;;;9.60;99.90;;;;;;5071513;28;20064;-64
2022/01/02 15:06:26;;;;;;;16.00;3.60;;;9.60;99.90;;;;;;5073632;28;19963;-63
2022/01/02 15:08:51;;;;;;;24.20;3.17;;;9.60;99.90;;;;;;5073425;28;20111;-63
2022/01/02 15:11:17;;;;;;;14.98;2.97;;;9.50;99.90;;;;;;5072887;28;20053;-62
2022/01/02 15:13:43;;;;;;;22.35;3.40;;;9.50;99.90;;;;;;5075358;28;20048;-63
2022/01/02 15:16:09;;;;;;;12.73;3.30;;;9.60;99.90;;;;;;5064223;28;20123;-64
2022/01/02 15:18:34;;;;;;;20.38;3.33;;;9.50;99.90;;;;;;5072204;28;20365;-63
2022/01/02 15:21:00;;;;;;;16.58;3.13;;;9.50;99.90;;;;;;5054154;28;20429;-63
2022/01/02 15:23:26;;;;;;;15.07;3.28;;;9.50;99.90;;;;;;5083345;28;20032;-63
2022/01/02 15:25:52;;;;;;;16.00;3.00;;;9.60;99.90;;;;;;5084395;28;20426;-63
2022/01/02 15:28:17;;;;;;;12.27;2.70;;;9.60;99.90;;;;;;5076347;28;20072;-63
2022/01/02 15:30:44;;;;;;;16.83;2.60;;;9.60;99.90;;;;;;5084453;28;20079;-63
2022/01/02 15:33:10;;;;;;;14.05;2.65;;;9.60;99.90;;;;;;5094298;28;20054;-63
2022/01/02 15:35:36;;;;;;;;;;;9.60;99.90;;;;;;5094648;28;20040;-62
2022/01/02 15:38:02;;;;;;;15.15;2.85;;;9.60;99.90;;;;;;5093900;28;19923;-63
2022/01/02 15:40:28;;;;;;;13.55;3.13;;;9.60;99.90;;;;;;5094257;28;20040;-62
2022/01/02 15:42:53;;;;;;;12.57;2.95;;;9.60;99.90;;;;;;5094158;28;20036;-62
2022/01/02 15:45:19;;;;;;;16.33;2.92;;;9.60;99.90;;;;;;5092885;28;20047;-63
2022/01/02 15:47:48;;;;;;;15.70;3.72;;;9.60;99.90;;;;;;5093875;28;20036;-62
2022/01/02 15:50:18;;;;;;;17.58;2.95;;;9.60;99.90;;;;;;5093804;28;20055;-62
2022/01/02 15:52:45;;;;;;;15.13;3.22;;;9.60;99.90;;;;;;5094414;28;20519;-62
2022/01/02 15:55:11;;;;;;;16.95;2.88;;;9.60;99.90;;;;;;5093900;28;20039;-63
2022/01/02 15:57:37;;;;;;;;;;;9.60;99.90;;;;;;5095154;28;20476;-62
2022/01/02 16:00:07;;;;;;;18.20;3.40;;;9.60;99.90;;;;;;5092836;28;20031;-63
2022/01/02 16:02:33;;;;;;;17.02;3.67;;;9.60;99.90;;;;;;5089658;28;20383;-62
2022/01/02 16:04:58;;;;;;;12.82;3.05;;;9.50;99.90;;;;;;5081178;28;20045;-64
2022/01/02 16:07:24;;;;;;;14.07;2.92;;;9.60;99.90;;;;;;5081222;28;20194;-63
2022/01/02 16:09:50;;;;;;;24.48;4.20;;;9.50;99.90;;;;;;5083904;28;20040;-65
2022/01/02 16:12:16;;;;;;;15.43;3.50;;;9.50;99.90;;;;;;5076377;28;20060;-63
2022/01/02 16:14:42;;;;;;;9.75;2.90;;;9.50;99.90;;;;;;5060175;28;20367;-63
2022/01/02 16:17:07;;;;;;;14.48;2.80;;;9.50;99.90;;;;;;5083181;28;20036;-63
2022/01/02 16:19:33;;;;;;;14.80;3.38;;;9.50;99.90;;;;;;5081395;28;20535;-63
2022/01/02 16:21:59;;;;;;;13.90;3.10;;;9.50;99.90;;;;;;5080896;28;20353;-64
2022/01/02 16:24:26;;;;;;;17.17;3.25;;;9.50;99.90;;;;;;5084928;28;20043;-62
2022/01/02 16:26:52;;;;;;;15.00;3.67;;;9.40;99.90;;;;;;5084609;28;20478;-63
2022/01/02 16:29:27;;;;;;;21.23;4.18;;;9.50;99.90;;;;;;5082723;28;20112;-64
2022/01/02 16:31:57;;;;;;;13.48;3.13;;;9.40;99.90;;;;;;5073557;28;20036;-63
2022/01/02 16:34:24;;;;;;;17.25;3.67;;;9.40;99.90;;;;;;5078999;28;20070;-63
2022/01/02 16:36:53;;;;;;;17.40;4.03;;;9.40;99.90;;;;;;5082244;28;20044;-63
2022/01/02 16:39:24;;;;;;;15.75;4.35;;;9.40;99.90;;;;;;5082445;28;20051;-63
2022/01/02 16:41:51;;;;;;;18.58;5.05;;;9.30;99.90;;;;;;5080097;28;20108;-61
2022/01/02 16:44:18;;;;;;;15.57;3.97;;;9.30;99.90;;;;;;5082685;28;20125;-62
2022/01/02 16:46:44;;;;;;;17.85;4.20;;;9.20;99.90;;;;;;5082677;28;20486;-61
2022/01/02 16:49:10;;;;;;;22.05;3.70;;;9.20;99.90;;;;;;5082441;28;20377;-62
2022/01/02 16:51:36;;;;;;;14.10;3.17;;;9.10;99.90;;;;;;5064759;28;20032;-62
2022/01/02 16:54:02;;;;;;;17.92;3.63;;;9.20;99.90;;;;;;5083617;28;20095;-60
2022/01/02 16:56:28;;;;;;;15.60;3.08;;;9.10;99.90;;;;;;5078562;28;20090;-60
2022/01/02 16:58:55;;;;;;;14.43;3.20;;;9.10;99.90;;;;;;5088489;28;20040;-61
2022/01/02 17:01:21;;;;;;;21.63;3.17;;;9.10;99.90;;;;;;5097136;28;20044;-61
2022/01/02 17:03:47;;;;;;;15.65;3.22;;;9.10;99.90;;;;;;5097538;28;20074;-61
2022/01/02 17:06:13;;;;;;;12.55;2.67;;;9.10;99.90;;;;;;5097021;28;20167;-60
2022/01/02 17:08:38;;;;;;;19.95;3.70;;;9.10;99.90;;;;;;5097023;28;20393;-61
2022/01/02 17:11:08;;;;;;;15.68;3.50;;;9.10;99.90;;;;;;5095629;28;20048;-60
2022/01/02 17:13:34;;;;;;;16.20;3.20;;;9.00;99.90;;;;;;5084756;28;20190;-60
2022/01/02 17:16:01;;;;;;;18.20;3.03;;;9.00;99.90;;;;;;5090207;28;20032;-60
2022/01/02 17:18:26;;;;;;;17.65;3.13;;;9.00;99.90;;;;;;5087162;28;20043;-60
2022/01/02 17:20:52;;;;;;;14.93;2.70;;;9.00;99.90;;;;;;5082438;28;20044;-60
2022/01/02 17:23:19;;;;;;;15.27;2.95;;;9.00;99.90;;;;;;5085902;28;20051;-61
2022/01/02 17:25:46;;;;;;;12.52;2.60;;;9.00;99.90;;;;;;5077338;28;20391;-60
2022/01/02 17:28:12;;;;;;;9.90;2.30;;;8.90;99.90;;;;;;5074611;28;20079;-59
2022/01/02 17:30:40;;;;;;;11.43;2.90;;;8.90;99.90;;;;;;5074180;28;20048;-60
2022/01/02 17:33:06;;;;;;;14.45;2.90;;;9.00;99.90;;;;;;5076757;28;20044;-61
2022/01/02 17:35:32;;;;;;;9.80;2.50;;;8.90;99.90;;;;;;5075584;28;20418;-61
2022/01/02 17:37:58;;;;;;;13.98;3.15;;;8.90;99.90;;;;;;5076228;28;20040;-63
2022/01/02 17:40:28;;;;;;;11.00;2.58;;;8.90;99.90;;;;;;5074891;28;20040;-61
2022/01/02 17:42:54;;;;;;;12.70;2.90;;;8.90;99.90;;;;;;5076085;28;20044;-60
2022/01/02 17:45:20;;;;;;;11.55;3.60;;;8.80;99.90;;;;;;5076704;28;20048;-61
2022/01/02 17:47:46;;;;;;;15.60;4.80;;;8.80;99.90;;;;;;5076112;28;20487;-61
2022/01/02 17:50:13;;;;;;;;;;;8.80;99.90;;;;;;5076181;28;20465;-60
